< Typhoon 202106 2021 Season Typhoon 202108 >
Typhoon 202107 (CEMPAKA)
General InformationDetailed Track InformationTrack Information on Google MapsForecast History on Google MapsAccess Analytics MapList of All Images || NewsDisaster Info.WeblogTrackbackTyphoon FrontTwiphoonTyphoon Now!Typhoon ImaginationJMA Disaster Info. XMLResourceGoogle EarthGE AnimationAtom FeedGeoJSON
Detalied Best Track Wind (Time Zone = UTC)
Year Month Day Hour Lat. Long. Wind (kt) Gust (kt) Direc. of Major Storm Axis Radius of Major Storm Axis (nm) Radius of Minor Storm Axis (nm) Direc. of Major Gale Axis Radius of Major Gale Axis (nm) Radius of Minor Gale Axis (nm) Image
2021 7 18 18 21.0 113.7 30 45 - - - - - - Image
2021 7 18 21 21.0 113.5 30 45 - - - - - - Image
2021 7 19 00 21.0 113.1 35 50 - - - symmetric 120 120 Image
2021 7 19 03 21.0 112.8 35 50 - - - symmetric 120 120 Image
2021 7 19 06 21.0 112.6 40 60 - - - symmetric 120 120 Image
2021 7 19 09 21.2 112.6 40 60 - - - symmetric 120 120 Image
2021 7 19 12 21.2 112.6 40 60 - - - symmetric 120 120 Image
2021 7 19 15 21.2 112.5 40 60 - - - symmetric 120 120 Image
2021 7 19 18 21.2 112.4 45 65 - - - symmetric 120 120 Image
2021 7 19 21 21.2 112.4 45 65 - - - symmetric 120 120 Image
2021 7 20 00 21.3 112.3 50 70 - - - symmetric 120 120 Image
2021 7 20 03 21.4 112.4 50 70 - - - symmetric 120 120 Image
2021 7 20 06 21.5 112.3 55 80 symmetric 50 50 E 120 90 Image
2021 7 20 09 21.6 112.3 55 80 symmetric 50 50 E 120 90 Image
2021 7 20 12 21.8 112.1 55 80 symmetric 50 50 E 120 90 Image
2021 7 20 15 21.8 111.6 55 80 symmetric 50 50 E 120 90 Image
2021 7 20 18 21.8 111.2 50 70 - - - symmetric 90 90 Image
2021 7 20 21 21.8 111.1 50 70 - - - symmetric 90 90 Image
2021 7 21 00 21.9 110.8 40 60 - - - symmetric 90 90 Image
2021 7 21 03 22.0 110.7 35 50 - - - symmetric 90 90 Image
2021 7 21 06 22.1 110.4 35 50 - - - symmetric 90 90 Image
2021 7 21 09 22.5 110.4 35 50 - - - symmetric 90 90 Image
2021 7 21 12 22.5 109.5 35 50 - - - symmetric 90 90 Image
2021 7 21 15 22.5 109.5 35 50 - - - symmetric 90 90 Image
2021 7 21 18 22.5 109.4 35 50 - - - symmetric 90 90 Image
2021 7 21 21 22.3 109.3 35 50 - - - symmetric 90 90 Image
2021 7 22 00 22.0 109.0 0 0 - - - - - - Image
Japan Meteorological Agency Best Track Data | Correction Date : 2021-07-22
< Typhoon 202106 2021 Season Typhoon 202108 >

Help